Time;durP1;ratioP1;P1;durP2;ratioP2;P2;SDS_P1;SDS_P2;PMS_P1;PMS_P2;Temp;Humidity;BMP_temperature;BMP_pressure;BME280_temperature;BME280_humidity;BME280_pressure;Samples;Min_cycle;Max_cycle;Signal;HPM_P1;HPM_P2
2023/10/18 00:01:23;;;;;;;;;;;;;;;20.31;56.96;101408.78;5038833;28;6098;-77
2023/10/18 00:03:53;;;;;;;;;;;;;;;20.31;56.94;101411.66;5023147;28;2239;-77
2023/10/18 00:06:22;;;;;;;;;;;;;;;20.32;56.84;101409.53;5038754;28;2306;-77
2023/10/18 00:08:49;;;;;;;;;;;;;;;20.30;57.10;101402.31;5040984;28;2262;-77
2023/10/18 00:11:15;;;;;;;;;;;;;;;20.31;57.24;101408.78;5039840;28;2251;-77
2023/10/18 00:13:42;;;;;;;;;;;;;;;20.32;56.94;101409.53;5041922;28;2263;-77
2023/10/18 00:16:08;;;;;;;;;;;;;;;20.31;57.21;101417.41;5026764;28;2304;-78
2023/10/18 00:18:35;;;;;;;;;;;;;;;20.29;57.25;101405.81;5043178;28;2101;-77
2023/10/18 00:21:02;;;;;;;;;;;;;;;20.30;57.20;101415.94;5042852;28;2280;-77
2023/10/18 00:23:31;;;;;;;;;;;;;;;20.29;57.05;101402.94;5042603;28;2333;-77
2023/10/18 00:26:00;;;;;;;;;;;;;;;20.29;57.17;101405.81;5024553;28;2305;-77
2023/10/18 00:28:27;;;;;;;;;;;;;;;20.29;57.20;101405.81;5009748;28;2653;-77
2023/10/18 00:30:54;;;;;;;;;;;;;;;20.28;57.02;101404.31;5041141;28;6038;-77
2023/10/18 00:33:20;;;;;;;;;;;;;;;20.30;57.26;101410.19;5044847;28;2250;-78
2023/10/18 00:35:47;;;;;;;;;;;;;;;20.29;57.07;101411.56;5044123;28;2178;-77
2023/10/18 00:38:18;;;;;;;;;;;;;;;20.30;57.14;101410.19;5001996;28;2237;-78
2023/10/18 00:40:45;;;;;;;;;;;;;;;20.31;57.06;101408.78;5042288;28;2240;-77
2023/10/18 00:43:20;;;;;;;;;;;;;;;20.32;57.21;101398.81;5026929;28;2312;-77
2023/10/18 00:45:48;;;;;;;;;;;;;;;20.31;57.23;101394.41;5042698;28;2133;-77
2023/10/18 00:48:14;;;;;;;;;;;;;;;20.32;57.18;101395.91;5025744;28;2188;-77
2023/10/18 00:50:45;;;;;;;;;;;;;;;20.33;57.25;101393.78;5024400;28;2273;-77
2023/10/18 00:53:17;;;;;;;;;;;;;;;20.31;57.08;101391.53;5043443;28;2148;-78
2023/10/18 00:55:44;;;;;;;;;;;;;;;20.31;57.44;101391.53;5026834;28;2200;-77
2023/10/18 00:58:15;;;;;;;;;;;;;;;20.30;57.21;101385.03;5010544;28;2514;-76
2023/10/18 01:00:42;;;;;;;;;;;;;;;20.30;57.21;101384.31;5025278;28;6071;-77
2023/10/18 01:05:58;;;;;;;;;;;;;;;20.29;57.16;101382.78;5043459;28;2197;-77
2023/10/18 01:08:24;;;;;;;;;;;;;;;20.29;57.37;101374.16;5018814;28;2274;-77
2023/10/18 01:10:51;;;;;;;;;;;;;;;20.29;57.30;101380.69;5040867;28;2377;-77
2023/10/18 01:13:20;;;;;;;;;;;;;;;20.28;57.26;101372.69;5043473;28;2141;-78
2023/10/18 01:15:48;;;;;;;;;;;;;;;20.29;57.09;101377.03;5023865;28;2469;-77
2023/10/18 01:18:15;;;;;;;;;;;;;;;20.29;57.28;101379.91;5042630;28;1565;-77
2023/10/18 01:20:42;;;;;;;;;;;;;;;20.28;57.25;101370.56;5038658;28;2216;-78
2023/10/18 01:23:10;;;;;;;;;;;;;;;20.30;57.12;101370.66;5021657;28;2265;-77
2023/10/18 01:25:36;;;;;;;;;;;;;;;20.31;57.19;101368.53;5022733;28;2308;-77
2023/10/18 01:28:05;;;;;;;;;;;;;;;20.30;57.10;101372.81;5039397;28;2211;-78
2023/10/18 01:30:33;;;;;;;;;;;;;;;20.30;57.14;101376.41;5036667;28;6749;-77
2023/10/18 01:33:01;;;;;;;;;;;;;;;20.30;57.21;101367.06;5041148;28;2346;-77
2023/10/18 01:35:27;;;;;;;;;;;;;;;20.29;57.07;101362.66;5041173;28;2138;-78
2023/10/18 01:37:54;;;;;;;;;;;;;;;20.30;57.02;101367.06;5025167;28;2283;-77
2023/10/18 01:42:56;;;;;;;;;;;;;;;20.29;57.14;101356.91;5037952;28;2259;-77
2023/10/18 01:45:26;;;;;;;;;;;;;;;20.28;57.29;101352.56;5023614;28;2239;-77
2023/10/18 01:47:52;;;;;;;;;;;;;;;20.29;57.12;101354.03;5022601;28;2245;-77
2023/10/18 01:50:21;;;;;;;;;;;;;;;20.28;57.16;101352.56;5041133;28;2180;-77
2023/10/18 01:52:49;;;;;;;;;;;;;;;20.28;57.25;101352.56;5022261;28;2325;-77
2023/10/18 01:55:17;;;;;;;;;;;;;;;20.29;57.26;101342.53;5041586;28;2021;-78
2023/10/18 01:57:45;;;;;;;;;;;;;;;20.27;57.17;101351.03;5022254;28;2384;-77
2023/10/18 02:00:34;;;;;;;;;;;;;;;20.28;57.14;101335.31;5038399;28;6063;-77
2023/10/18 02:03:01;;;;;;;;;;;;;;;20.29;57.01;101325.28;5039383;28;2370;-77
2023/10/18 02:05:27;;;;;;;;;;;;;;;20.29;57.13;101331.03;5023023;28;2182;-77
2023/10/18 02:07:55;;;;;;;;;;;;;;;20.28;57.16;101329.53;5039615;28;1654;-78
2023/10/18 02:10:25;;;;;;;;;;;;;;;20.29;57.13;101326.03;5024201;28;2431;-77
2023/10/18 02:12:52;;;;;;;;;;;;;;;20.30;57.26;101326.78;5042117;28;2165;-77
2023/10/18 02:15:18;;;;;;;;;;;;;;;20.31;57.47;101328.25;5038384;28;2231;-78
2023/10/18 02:17:46;;;;;;;;;;;;;;;20.30;57.27;101330.41;5042139;28;2195;-77
2023/10/18 02:20:25;;;;;;;;;;;;;;;20.29;57.36;101331.03;5041463;28;2299;-77
2023/10/18 02:22:55;;;;;;;;;;;;;;;20.29;57.13;101322.41;5022801;28;2396;-77
2023/10/18 02:25:36;;;;;;;;;;;;;;;20.28;57.31;101324.53;5043347;28;2169;-77
2023/10/18 02:28:08;;;;;;;;;;;;;;;20.28;57.30;101330.28;5040341;28;2313;-77
2023/10/18 02:30:35;;;;;;;;;;;;;;;20.28;57.44;101326.66;5023235;28;6290;-80
2023/10/18 02:33:03;;;;;;;;;;;;;;;20.28;57.16;101332.44;5038435;28;2176;-72
2023/10/18 02:35:30;;;;;;;;;;;;;;;20.27;57.31;101333.78;5040128;28;2161;-72
2023/10/18 02:37:56;;;;;;;;;;;;;;;20.27;57.19;101322.28;5038384;28;2148;-72
2023/10/18 02:40:29;;;;;;;;;;;;;;;20.27;57.06;101322.28;5042176;28;2078;-73
2023/10/18 02:42:58;;;;;;;;;;;;;;;20.26;57.23;101324.41;5040280;28;2220;-72
2023/10/18 02:45:24;;;;;;;;;;;;;;;20.27;57.03;101323.06;5024815;28;2122;-72
2023/10/18 02:47:51;;;;;;;;;;;;;;;20.27;57.06;101322.28;5040007;28;2236;-72
2023/10/18 02:50:18;;;;;;;;;;;;;;;20.28;56.96;101320.91;5020153;28;1622;-72
2023/10/18 02:52:46;;;;;;;;;;;;;;;20.28;56.94;101315.91;5038638;28;2234;-72
2023/10/18 02:55:13;;;;;;;;;;;;;;;20.29;57.06;101313.78;5038448;28;2247;-72
2023/10/18 02:57:46;;;;;;;;;;;;;;;20.30;57.16;101315.28;5041941;28;1921;-72
2023/10/18 03:00:13;;;;;;;;;;;;;;;20.29;57.01;101313.78;5039540;28;6198;-72
2023/10/18 03:02:40;;;;;;;;;;;;;;;20.30;57.00;101316.03;5015052;28;2398;-73
2023/10/18 03:05:07;;;;;;;;;;;;;;;20.32;57.01;101309.63;5037952;28;2499;-74
2023/10/18 03:07:37;;;;;;;;;;;;;;;20.34;57.13;101317.63;5039711;28;2262;-73
2023/10/18 03:10:26;;;;;;;;;;;;;;;20.36;57.27;101323.47;5020413;28;1781;-74
2023/10/18 03:12:53;;;;;;;;;;;;;;;20.36;56.95;101309.84;5039585;28;2273;-74
2023/10/18 03:15:24;;;;;;;;;;;;;;;20.35;57.27;101308.34;5039670;28;2367;-74
2023/10/18 03:17:51;;;;;;;;;;;;;;;20.35;57.08;101299.00;5016930;28;2251;-73
2023/10/18 03:20:23;;;;;;;;;;;;;;;20.34;57.29;101298.25;5038206;28;2509;-73
2023/10/18 03:22:50;;;;;;;;;;;;;;;20.33;57.21;101302.50;5018905;28;2260;-73
2023/10/18 03:25:17;;;;;;;;;;;;;;;20.33;57.24;101293.88;5035090;28;2247;-74
2023/10/18 03:27:50;;;;;;;;;;;;;;;20.33;57.19;101302.50;5035606;28;2282;-74
2023/10/18 03:30:23;;;;;;;;;;;;;;;20.32;57.12;101301.00;5038482;28;6213;-73
2023/10/18 03:32:54;;;;;;;;;;;;;;;20.34;57.22;101298.25;5038114;28;2298;-73
2023/10/18 03:35:22;;;;;;;;;;;;;;;20.34;57.02;101306.88;5036564;28;2536;-74
2023/10/18 03:37:48;;;;;;;;;;;;;;;20.34;57.02;101301.13;5023273;28;2321;-73
2023/10/18 03:40:23;;;;;;;;;;;;;;;20.35;57.18;101299.72;5039746;28;1656;-73
2023/10/18 03:42:53;;;;;;;;;;;;;;;20.37;56.96;101302.72;5035748;28;2262;-73
2023/10/18 03:45:22;;;;;;;;;;;;;;;20.36;57.16;101301.22;5021676;28;2297;-74
2023/10/18 03:48:06;;;;;;;;;;;;;;;20.38;56.94;101303.47;5018216;28;2291;-74
2023/10/18 03:50:40;;;;;;;;;;;;;;;20.38;57.19;101298.44;5006611;28;2271;-74
2023/10/18 03:53:13;;;;;;;;;;;;;;;20.38;57.02;101298.44;5017947;28;2264;-74
2023/10/18 03:55:39;;;;;;;;;;;;;;;20.39;57.16;101296.34;5039324;28;2338;-74
2023/10/18 03:58:06;;;;;;;;;;;;;;;20.39;57.15;101291.31;5005343;28;2249;-73
2023/10/18 04:00:39;;;;;;;;;;;;;;;20.38;57.05;101280.44;5039842;28;6021;-73
2023/10/18 04:03:10;;;;;;;;;;;;;;;20.38;57.15;101283.31;5039580;28;2482;-74
2023/10/18 04:05:42;;;;;;;;;;;;;;;20.38;57.08;101275.44;5039584;28;2334;-73
2023/10/18 04:08:10;;;;;;;;;;;;;;;20.38;57.15;101274.69;5038772;28;2117;-73
2023/10/18 04:10:37;;;;;;;;;;;;;;;20.37;57.00;101282.59;5036922;28;2472;-74
2023/10/18 04:13:05;;;;;;;;;;;;;;;20.37;57.06;101273.94;5022829;28;2315;-74
2023/10/18 04:15:37;;;;;;;;;;;;;;;20.38;57.00;101266.06;5041036;28;1969;-74
2023/10/18 04:20:40;;;;;;;;;;;;;;;20.39;57.03;101259.69;5042490;28;1626;-74
2023/10/18 04:23:14;;;;;;;;;;;;;;;20.39;57.15;101253.94;5041327;28;2178;-74
2023/10/18 04:25:41;;;;;;;;;;;;;;;20.39;57.29;101242.41;5024663;28;1732;-74
2023/10/18 04:28:09;;;;;;;;;;;;;;;20.40;56.93;101255.41;5037948;28;2380;-74
2023/10/18 04:30:38;;;;;;;;;;;;;;;20.40;57.14;101255.41;5041523;28;6248;-74
2023/10/18 04:35:46;;;;;;;;;;;;;;;20.41;57.09;101256.16;5035707;28;2607;-75
2023/10/18 04:38:22;;;;;;;;;;;;;;;20.41;57.18;101248.28;5033142;28;2721;-74
2023/10/18 04:41:28;;;;;;;;;;;;;;;20.44;57.02;101243.38;5035914;28;2248;-74
2023/10/18 04:43:44;;;;;;;;;;;;;;;20.54;56.95;101251.78;5034221;28;2376;-74
2023/10/18 04:46:18;;;;;;;;;;;;;;;18.79;44.26;101245.06;5037241;28;2169;-74
2023/10/18 04:54:08;;;;;;;;;;;;;;;20.05;52.29;101255.72;5042108;28;1801;-74
2023/10/18 04:56:44;;;;;;;;;;;;;;;20.14;51.95;101251.16;5043242;28;2004;-74
2023/10/18 04:59:11;;;;;;;;;;;;;;;20.20;51.38;101257.97;5044575;28;2099;-73
2023/10/18 05:01:42;;;;;;;;;;;;;;;20.24;51.85;101258.16;5042385;28;6007;-74
2023/10/18 05:04:20;;;;;;;;;;;;;;;20.27;52.02;101253.28;5043898;28;1781;-74
2023/10/18 05:06:56;;;;;;;;;;;;;;;20.28;53.49;101244.00;5043989;28;1897;-74
2023/10/18 05:09:30;;;;;;;;;;;;;;;20.30;54.28;101246.25;5043844;28;1608;-74
2023/10/18 05:12:52;;;;;;;;;;;;;;;20.32;54.58;101243.50;5043097;28;2122;-73
2023/10/18 05:14:50;;;;;;;;;;;;;;;20.32;54.59;101249.25;5033091;28;2232;-74
2023/10/18 05:17:23;;;;;;;;;;;;;;;20.32;54.83;101249.25;5024783;28;2165;-74
2023/10/18 05:19:50;;;;;;;;;;;;;;;20.34;55.14;101246.47;5009356;28;2105;-74
2023/10/18 05:22:23;;;;;;;;;;;;;;;20.33;55.27;101250.72;5025354;28;1817;-74
2023/10/18 05:25:11;;;;;;;;;;;;;;;20.33;55.13;101250.72;5026162;28;1590;-74
2023/10/18 05:27:59;;;;;;;;;;;;;;;20.33;55.47;101259.34;5042025;28;2043;-74
2023/10/18 05:30:26;;;;;;;;;;;;;;;20.33;55.26;101256.47;5042292;28;6724;-75
2023/10/18 05:35:29;;;;;;;;;;;;;;;20.33;55.51;101256.47;5042196;28;1995;-74
2023/10/18 05:37:59;;;;;;;;;;;;;;;20.34;55.49;101263.72;5040267;28;2103;-74
2023/10/18 05:43:30;;;;;;;;;;;;;;;20.34;55.41;101269.50;5042548;28;2119;-74
2023/10/18 05:45:57;;;;;;;;;;;;;;;20.34;55.61;101275.25;5043526;28;2095;-74
2023/10/18 05:48:24;;;;;;;;;;;;;;;20.35;55.60;101265.22;5023444;28;2104;-74
2023/10/18 05:51:01;;;;;;;;;;;;;;;20.34;55.71;101257.97;5024782;28;2177;-75
2023/10/18 05:53:28;;;;;;;;;;;;;;;20.36;55.62;101255.19;5043509;28;1693;-74
2023/10/18 05:55:55;;;;;;;;;;;;;;;20.38;56.00;101254.56;5042340;28;2118;-74
2023/10/18 05:58:27;;;;;;;;;;;;;;;20.37;55.64;101245.19;5041705;28;2134;-74
2023/10/18 06:00:55;;;;;;;;;;;;;;;20.36;55.90;101246.56;5026007;28;6333;-74
2023/10/18 06:03:22;;;;;;;;;;;;;;;20.35;55.97;101236.44;5025156;28;2159;-74
2023/10/18 06:05:53;;;;;;;;;;;;;;;20.35;55.73;101239.31;5041344;28;2098;-74
2023/10/18 06:08:22;;;;;;;;;;;;;;;20.35;55.86;101224.94;5042594;28;2037;-74
2023/10/18 06:10:53;;;;;;;;;;;;;;;20.34;55.62;101232.09;5040795;28;2185;-74
2023/10/18 06:13:23;;;;;;;;;;;;;;;20.36;55.72;101248.69;5043006;28;2141;-74
2023/10/18 06:15:50;;;;;;;;;;;;;;;20.36;55.86;101237.19;5042988;28;1914;-74
2023/10/18 06:18:18;;;;;;;;;;;;;;;20.36;55.77;101226.41;5043524;28;1741;-73
2023/10/18 06:20:52;;;;;;;;;;;;;;;20.37;55.96;101227.94;5040755;28;2397;-74
2023/10/18 06:25:50;;;;;;;;;;;;;;;20.38;55.78;101229.41;5042271;28;2251;-74
2023/10/18 06:28:20;;;;;;;;;;;;;;;20.39;55.69;101230.91;5040594;28;2122;-74
2023/10/18 06:30:51;;;;;;;;;;;;;;;19.99;50.36;101236.00;5039843;28;6221;-71
2023/10/18 06:33:21;;;;;;;;;;;;;;;19.29;47.11;101227.78;5041242;28;2239;-72
2023/10/18 06:35:51;;;;;;;;;;;;;;;19.77;50.44;101234.78;5024940;28;2308;-86
2023/10/18 06:38:23;;;;;;;;;;;;;;;20.02;51.45;101234.75;5042291;28;2086;-72
2023/10/18 06:40:53;;;;;;;;;;;;;;;20.17;51.85;101232.63;5041842;28;2154;-74
2023/10/18 06:43:31;;;;;;;;;;;;;;;20.23;52.07;101233.69;5024812;28;2126;-73
2023/10/18 06:45:58;;;;;;;;;;;;;;;20.27;52.46;101225.28;5040247;28;2095;-74
2023/10/18 06:48:28;;;;;;;;;;;;;;;20.29;52.73;101227.50;5041453;28;2283;-74
2023/10/18 06:50:55;;;;;;;;;;;;;;;20.28;52.47;101228.91;5042362;28;2213;-73
2023/10/18 06:53:22;;;;;;;;;;;;;;;20.30;53.33;101229.00;5024045;28;2017;-73
2023/10/18 06:56:06;;;;;;;;;;;;;;;20.32;53.68;101231.22;5043391;28;1981;-73
2023/10/18 07:01:08;;;;;;;;;;;;;;;20.34;53.78;101229.22;5039946;28;6204;-73
2023/10/18 07:03:37;;;;;;;;;;;;;;;20.35;53.83;101230.69;5043499;28;1751;-73
2023/10/18 07:06:04;;;;;;;;;;;;;;;20.37;54.06;101225.06;5042537;28;2094;-74
2023/10/18 07:08:34;;;;;;;;;;;;;;;20.38;53.83;101229.41;5042641;28;1704;-73
2023/10/18 07:11:01;;;;;;;;;;;;;;;20.39;54.87;101225.16;5043315;28;1821;-73
2023/10/18 07:13:48;;;;;;;;;;;;;;;20.38;55.39;101229.41;5026955;28;1765;-73
2023/10/18 07:16:16;;;;;;;;;;;;;;;20.38;55.81;101235.16;5040507;28;2007;-73
2023/10/18 07:18:45;;;;;;;;;;;;;;;20.38;55.80;101235.16;5040543;28;1784;-73
2023/10/18 07:21:18;;;;;;;;;;;;;;;20.36;56.04;101232.19;5042810;28;1682;-73
2023/10/18 07:23:53;;;;;;;;;;;;;;;20.36;56.54;101220.69;5024814;28;1571;-73
2023/10/18 07:26:21;;;;;;;;;;;;;;;20.36;56.28;101222.81;5026266;28;1796;-73
2023/10/18 07:28:49;;;;;;;;;;;;;;;20.36;56.40;101225.69;5041934;28;1871;-73
2023/10/18 07:31:17;;;;;;;;;;;;;;;20.37;56.70;101210.66;5040926;28;6015;-73
2023/10/18 07:33:44;;;;;;;;;;;;;;;20.03;53.06;101223.97;5040457;28;1606;-73
2023/10/18 07:36:17;;;;;;;;;;;;;;;19.98;54.37;101222.28;5025306;28;1968;-73
2023/10/18 07:38:47;;;;;;;;;;;;;;;20.17;54.78;101215.34;5041966;28;1642;-73
2023/10/18 07:41:13;;;;;;;;;;;;;;;20.25;54.93;101222.28;5041716;28;1832;-74
2023/10/18 07:43:43;;;;;;;;;;;;;;;20.29;55.30;101205.25;5040995;28;1634;-73
2023/10/18 07:46:09;;;;;;;;;;;;;;;20.32;55.44;101203.22;5042095;28;1583;-73
2023/10/18 07:48:38;;;;;;;;;;;;;;;20.34;55.29;101194.72;5024901;28;1649;-72
2023/10/18 07:51:23;;;;;;;;;;;;;;;20.35;55.91;101196.19;5041377;28;1800;-73
2023/10/18 07:53:53;;;;;;;;;;;;;;;20.34;55.97;101206.22;5040671;28;1742;-72
2023/10/18 07:56:26;;;;;;;;;;;;;;;20.36;55.83;101206.28;5024696;28;1942;-74
2023/10/18 07:58:53;;;;;;;;;;;;;;;20.38;56.05;101194.16;5024735;28;1723;-72
2023/10/18 08:01:46;;;;;;;;;;;;;;;20.38;55.20;101194.91;5040204;28;6365;-73
2023/10/18 08:04:17;;;;;;;;;;;;;;;20.40;55.20;101174.13;5041850;28;1797;-74
2023/10/18 08:06:44;;;;;;;;;;;;;;;20.41;55.81;101187.88;5041365;28;1868;-73
2023/10/18 08:09:12;;;;;;;;;;;;;;;20.42;55.40;101177.84;5042013;28;1622;-75
2023/10/18 08:11:38;;;;;;;;;;;;;;;20.43;55.57;101185.09;5042250;28;1845;-73
2023/10/18 08:14:16;;;;;;;;;;;;;;;18.54;47.79;101190.50;5040558;28;1817;-73
2023/10/18 08:16:43;;;;;;;;;;;;;;;13.53;57.60;101191.72;5042243;28;1973;-72
2023/10/18 08:19:12;;;;;;;;;;;;;;;13.73;57.80;101187.63;5041261;28;1571;-82
2023/10/18 08:21:39;;;;;;;;;;;;;;;14.24;59.41;101180.16;5041605;28;1582;-71
2023/10/18 08:24:09;;;;;;;;;;;;;;;16.06;56.36;101189.00;5039256;28;1678;-69
2023/10/18 08:26:48;;;;;;;;;;;;;;;17.42;49.61;101176.53;5041713;28;1587;-69
2023/10/18 08:29:14;;;;;;;;;;;;;;;17.36;47.84;101184.72;5043162;28;1809;-69
2023/10/18 08:31:48;;;;;;;;;;;;;;;17.50;47.02;101182.00;5044096;28;6213;-70
2023/10/18 08:34:23;;;;;;;;;;;;;;;18.19;47.11;101179.84;5045831;28;1627;-69
2023/10/18 08:37:01;;;;;;;;;;;;;;;18.81;47.83;101179.22;5045404;28;1918;-70
2023/10/18 08:39:27;;;;;;;;;;;;;;;19.17;49.07;101176.16;5044943;28;1631;-80
2023/10/18 08:42:05;;;;;;;;;;;;;;;18.22;50.01;101175.72;5044082;28;1606;-80
2023/10/18 08:44:32;;;;;;;;;;;;;;;17.69;49.15;101164.59;5024627;28;1795;-80
2023/10/18 08:49:43;;;;;;;;;;;;;;;17.53;48.93;101172.94;5044469;28;1730;-76
2023/10/18 08:52:10;;;;;;;;;;;;;;;17.94;48.37;101161.16;5044578;28;2087;-70
2023/10/18 08:54:39;;;;;;;;;;;;;;;18.50;48.60;101150.09;5044294;28;1653;-69
2023/10/18 08:57:07;;;;;;;;;;;;;;;18.90;47.68;101154.59;5044625;28;1975;-69
2023/10/18 08:59:42;;;;;;;;;;;;;;;19.08;48.62;101145.50;5043510;28;1797;-69
2023/10/18 09:02:12;;;;;;;;;;;;;;;19.24;49.52;101143.53;5044798;28;6396;-69
2023/10/18 09:04:44;;;;;;;;;;;;;;;19.32;49.73;101146.13;5045002;28;1665;-70
2023/10/18 09:07:23;;;;;;;;;;;;;;;19.45;49.87;101145.44;5045458;28;1801;-71
2023/10/18 09:09:56;;;;;;;;;;;;;;;19.55;49.95;101136.63;5045136;28;1850;-70
2023/10/18 09:12:32;;;;;;;;;;;;;;;19.56;50.65;101138.84;5043707;28;1626;-70
2023/10/18 09:14:59;;;;;;;;;;;;;;;19.64;50.97;101138.53;5026742;28;1788;-70
2023/10/18 09:17:25;;;;;;;;;;;;;;;19.65;51.26;101128.53;5044197;28;1975;-71
2023/10/18 09:19:56;;;;;;;;;;;;;;;19.66;51.56;101119.28;5043508;28;1988;-70
2023/10/18 09:22:23;;;;;;;;;;;;;;;19.69;51.93;101133.78;5027442;28;1797;-71
2023/10/18 09:24:49;;;;;;;;;;;;;;;19.65;52.27;101123.56;5044275;28;1643;-70
2023/10/18 09:27:16;;;;;;;;;;;;;;;19.66;52.55;101133.66;5025809;28;1642;-71
2023/10/18 09:29:42;;;;;;;;;;;;;;;19.70;52.58;101124.53;5044279;28;1605;-70
2023/10/18 09:32:19;;;;;;;;;;;;;;;19.70;52.80;101130.28;5024842;28;6158;-70
2023/10/18 09:34:46;;;;;;;;;;;;;;;19.74;52.86;101126.88;5028125;28;1620;-71
2023/10/18 09:37:12;;;;;;;;;;;;;;;19.75;53.13;101117.63;5044375;28;1966;-71
2023/10/18 09:39:42;;;;;;;;;;;;;;;19.77;53.28;101114.09;5043182;28;1568;-71
2023/10/18 09:42:12;;;;;;;;;;;;;;;19.80;53.33;101113.56;5043201;28;1583;-70
2023/10/18 09:44:41;;;;;;;;;;;;;;;19.82;53.51;101118.69;5043571;28;1919;-70
2023/10/18 09:47:08;;;;;;;;;;;;;;;19.83;53.48;101108.66;5044185;28;1785;-70
2023/10/18 09:49:34;;;;;;;;;;;;;;;19.85;53.62;101108.78;5041836;28;1637;-70
2023/10/18 09:52:07;;;;;;;;;;;;;;;19.90;53.61;101098.97;5042648;28;1836;-70
2023/10/18 09:54:36;;;;;;;;;;;;;;;19.91;53.64;101097.63;5043989;28;1772;-70
2023/10/18 09:57:03;;;;;;;;;;;;;;;19.91;53.79;101102.63;5041783;28;1910;-70
2023/10/18 09:59:37;;;;;;;;;;;;;;;19.87;54.26;101094.53;5042898;28;1625;-70
2023/10/18 10:02:15;;;;;;;;;;;;;;;19.88;54.35;101096.75;5027822;28;6296;-70
2023/10/18 10:04:43;;;;;;;;;;;;;;;19.86;54.53;101095.91;5027351;28;1817;-70
2023/10/18 10:07:28;;;;;;;;;;;;;;;19.90;54.39;101089.63;5043457;28;1936;-70
2023/10/18 10:10:07;;;;;;;;;;;;;;;19.90;54.54;101095.38;5012559;28;1599;-70
2023/10/18 10:12:35;;;;;;;;;;;;;;;19.92;54.70;101093.34;5028442;28;1630;-70
2023/10/18 10:15:02;;;;;;;;;;;;;;;19.94;54.65;101096.31;5043081;28;1841;-71
2023/10/18 10:17:28;;;;;;;;;;;;;;;19.94;54.74;101090.56;5042870;28;1914;-70
2023/10/18 10:20:10;;;;;;;;;;;;;;;19.97;54.81;101088.56;5026546;28;1801;-70
2023/10/18 10:22:41;;;;;;;;;;;;;;;19.98;54.95;101090.78;5026237;28;1599;-70
2023/10/18 10:25:11;;;;;;;;;;;;;;;19.98;54.96;101090.78;5041837;28;1578;-71
2023/10/18 10:28:14;;;;;;;;;;;;;;;19.99;55.04;101083.66;5043292;28;1961;-70
2023/10/18 10:30:43;;;;;;;;;;;;;;;20.01;54.71;101083.00;5042431;28;6509;-70
2023/10/18 10:33:13;;;;;;;;;;;;;;;20.01;54.38;101088.75;5042175;28;1769;-70
2023/10/18 10:35:44;;;;;;;;;;;;;;;20.02;54.42;101087.38;5042525;28;1706;-70
2023/10/18 10:38:14;;;;;;;;;;;;;;;20.01;54.04;101078.00;5041884;28;1583;-70
2023/10/18 10:40:45;;;;;;;;;;;;;;;20.00;54.67;101081.53;5038310;28;2146;-71
2023/10/18 10:43:14;;;;;;;;;;;;;;;20.02;54.38;101079.50;5039535;28;2103;-71
2023/10/18 10:48:38;;;;;;;;;;;;;;;19.96;54.79;101070.56;5042014;28;2082;-69
2023/10/18 10:51:06;;;;;;;;;;;;;;;20.00;54.69;101062.16;5034092;28;2209;-73
2023/10/18 10:53:36;;;;;;;;;;;;;;;20.07;54.44;101063.94;5040951;28;2154;-76
2023/10/18 10:56:16;;;;;;;;;;;;;;;20.49;54.04;101055.22;5040343;28;2135;-76
2023/10/18 10:58:55;;;;;;;;;;;;;;;20.59;53.72;101052.88;5025855;28;1575;-76
2023/10/18 11:01:39;;;;;;;;;;;;;;;20.54;53.84;101047.53;5041827;28;6209;-72
2023/10/18 11:04:23;;;;;;;;;;;;;;;20.56;54.00;101048.38;5042508;28;1694;-71
2023/10/18 11:06:56;;;;;;;;;;;;;;;20.63;54.04;101041.53;5042738;28;1571;-70
2023/10/18 11:09:32;;;;;;;;;;;;;;;20.65;54.04;101026.50;5024539;28;1576;-70
2023/10/18 11:12:27;;;;;;;;;;;;;;;20.73;54.76;101034.78;5041652;28;1883;-71
2023/10/18 11:14:53;;;;;;;;;;;;;;;20.75;54.71;101029.84;5037973;28;1831;-71
2023/10/18 11:17:23;;;;;;;;;;;;;;;20.78;54.60;101028.59;5041573;28;1910;-72
2023/10/18 11:19:53;;;;;;;;;;;;;;;20.79;54.83;101023.56;5042174;28;1599;-70
2023/10/18 11:22:21;;;;;;;;;;;;;;;20.79;54.90;101017.81;5041984;28;1583;-67
2023/10/18 11:24:51;;;;;;;;;;;;;;;20.79;54.76;101009.91;5041846;28;1630;-71
2023/10/18 11:27:18;;;;;;;;;;;;;;;20.82;54.74;101016.50;5041278;28;1717;-73
2023/10/18 11:29:45;;;;;;;;;;;;;;;20.76;55.19;101011.22;5041059;28;1583;-72
2023/10/18 11:32:17;;;;;;;;;;;;;;;20.74;55.07;101019.75;5039630;28;6133;-80
2023/10/18 11:34:45;;;;;;;;;;;;;;;20.71;55.54;101018.19;5025769;28;1560;-74
2023/10/18 11:37:14;;;;;;;;;;;;;;;20.70;55.46;101008.03;5041213;28;1910;-74
2023/10/18 11:39:40;;;;;;;;;;;;;;;20.57;55.14;100995.22;5039152;28;1612;-74
2023/10/18 11:42:10;;;;;;;;;;;;;;;20.54;55.23;100999.34;5041197;28;1789;-74
2023/10/18 11:44:39;;;;;;;;;;;;;;;20.56;55.44;100993.72;5041981;28;1619;-73
2023/10/18 11:47:12;;;;;;;;;;;;;;;20.63;55.72;100978.25;5040380;28;1837;-73
2023/10/18 11:49:39;;;;;;;;;;;;;;;20.60;55.60;100981.69;5041143;28;1753;-73
2023/10/18 11:52:16;;;;;;;;;;;;;;;20.60;55.50;100978.81;5041583;28;1833;-73
2023/10/18 11:54:47;;;;;;;;;;;;;;;20.75;55.67;100983.81;5041462;28;1769;-71
2023/10/18 11:57:28;;;;;;;;;;;;;;;20.73;55.38;100974.34;5041623;28;1980;-72
2023/10/18 12:00:21;;;;;;;;;;;;;;;20.58;55.83;100967.94;5041004;28;1551;-70
2023/10/18 12:02:45;;;;;;;;;;;;;;;20.58;55.66;100964.31;5038269;28;6263;-75
2023/10/18 12:05:14;;;;;;;;;;;;;;;20.59;55.50;100954.28;5043722;28;1623;-75
2023/10/18 12:07:44;;;;;;;;;;;;;;;20.56;55.60;100953.44;5045492;28;1647;-75
2023/10/18 12:10:18;;;;;;;;;;;;;;;20.57;55.70;100952.06;5045764;28;1683;-75
2023/10/18 12:12:44;;;;;;;;;;;;;;;20.56;55.82;100944.81;5046356;28;1789;-76
2023/10/18 12:15:13;;;;;;;;;;;;;;;20.55;55.46;100949.06;5044641;28;1756;-79
2023/10/18 12:17:39;;;;;;;;;;;;;;;20.18;52.07;100935.06;5044762;28;1977;-75
2023/10/18 12:20:08;;;;;;;;;;;;;;;20.48;50.93;100933.66;5045044;28;1852;-76
2023/10/18 12:22:36;;;;;;;;;;;;;;;20.66;51.19;100930.16;5044789;28;1666;-77
2023/10/18 12:25:02;;;;;;;;;;;;;;;20.78;52.59;100932.88;5044937;28;1634;-76
2023/10/18 12:27:35;;;;;;;;;;;;;;;20.82;52.92;100936.69;5045536;28;1862;-71
2023/10/18 12:30:27;;;;;;;;;;;;;;;20.89;53.33;100924.06;5045263;28;1796;-70
2023/10/18 12:32:57;;;;;;;;;;;;;;;20.74;53.64;100919.03;5041541;28;5906;-81
2023/10/18 12:35:28;;;;;;;;;;;;;;;20.76;53.81;100915.50;5046359;28;2317;-70
2023/10/18 12:37:55;;;;;;;;;;;;;;;20.79;53.83;100903.44;5043765;28;2253;-70
2023/10/18 12:40:32;;;;;;;;;;;;;;;20.76;53.78;100907.63;5045287;28;2342;-70
2023/10/18 12:43:00;;;;;;;;;;;;;;;20.76;54.15;100898.97;5044313;28;1936;-70
2023/10/18 12:45:27;;;;;;;;;;;;;;;20.75;54.13;100897.47;5044692;28;1862;-70
2023/10/18 12:47:53;;;;;;;;;;;;;;;20.74;54.29;100890.25;5044273;28;1618;-70
2023/10/18 12:50:20;;;;;;;;;;;;;;;20.73;54.46;100894.53;5044517;28;2137;-70
2023/10/18 12:52:52;;;;;;;;;;;;;;;20.74;54.35;100896.00;5044585;28;2160;-70
2023/10/18 12:55:36;;;;;;;;;;;;;;;20.75;54.67;100891.00;5043245;28;2249;-71
2023/10/18 12:58:08;;;;;;;;;;;;;;;20.76;54.44;100870.22;5043391;28;2181;-69
2023/10/18 13:00:42;;;;;;;;;;;;;;;20.79;54.71;100871.78;5040758;28;6204;-69
2023/10/18 13:05:43;;;;;;;;;;;;;;;20.71;54.81;100859.91;5044951;28;1591;-69
2023/10/18 13:08:34;;;;;;;;;;;;;;;20.71;54.95;100857.78;5044241;28;1587;-69
2023/10/18 13:13:30;;;;;;;;;;;;;;;20.70;54.85;100846.91;5043334;28;1889;-69
2023/10/18 13:16:00;;;;;;;;;;;;;;;20.72;54.99;100841.25;5044193;28;1634;-69
2023/10/18 13:18:26;;;;;;;;;;;;;;;20.70;55.15;100835.41;5044669;28;1973;-69
2023/10/18 13:20:58;;;;;;;;;;;;;;;20.70;55.03;100835.41;5045021;28;1642;-69
2023/10/18 13:23:27;;;;;;;;;;;;;;;20.67;55.00;100834.56;5043856;28;1633;-69
2023/10/18 13:25:54;;;;;;;;;;;;;;;20.70;54.96;100832.53;5045178;28;1641;-69
2023/10/18 13:28:33;;;;;;;;;;;;;;;20.70;55.21;100832.53;5044842;28;1610;-69
2023/10/18 13:31:09;;;;;;;;;;;;;;;20.68;55.05;100818.03;5041441;28;6217;-69
2023/10/18 13:33:38;;;;;;;;;;;;;;;20.68;55.04;100821.69;5043876;28;1852;-69
2023/10/18 13:36:13;;;;;;;;;;;;;;;20.68;54.98;100818.81;5044182;28;1657;-69
2023/10/18 13:38:40;;;;;;;;;;;;;;;20.67;55.21;100810.81;5042527;28;1937;-69
2023/10/18 13:41:07;;;;;;;;;;;;;;;20.66;55.10;100800.69;5043561;28;1710;-70
2023/10/18 13:43:35;;;;;;;;;;;;;;;20.66;55.24;100800.69;5043775;28;1782;-69